createdAt,value
2019-02-27T00:02:23.405Z,70.5
2019-02-27T00:15:10.233Z,70.9
2019-02-27T00:32:20.457Z,71
2019-02-27T00:47:20.795Z,69.7
2019-02-27T01:00:10.378Z,68.9
2019-02-27T01:15:11.454Z,70.3
2019-02-27T01:34:31.774Z,71.5
2019-02-27T01:47:19.902Z,71.1
2019-02-27T02:00:10.718Z,71.7
2019-02-27T02:17:20.088Z,71
2019-02-27T02:30:10.786Z,72.8
2019-02-27T03:00:10.866Z,73.3
2019-02-27T03:17:22.520Z,71.6
2019-02-27T03:32:21.577Z,71.3
2019-02-27T03:45:11.041Z,70.4
2019-02-27T04:02:21.825Z,70.6
2019-02-27T04:15:11.090Z,71.5
2019-02-27T04:32:21.953Z,72.1
2019-02-27T04:47:21.032Z,72.4
2019-02-27T05:00:11.463Z,71.8
2019-02-27T05:19:32.178Z,71.7
2019-02-27T05:32:22.349Z,71
2019-02-27T05:47:23.510Z,71.4
2019-02-27T06:02:18.427Z,72.9
2019-02-27T06:17:19.616Z,72.5
2019-02-27T06:30:09.358Z,72.7
2019-02-27T06:49:30.712Z,72.2
2019-02-27T07:02:22.377Z,72.8
2019-02-27T07:17:19.940Z,73.4
2019-02-27T07:30:10.830Z,72.4
2019-02-27T07:47:20.152Z,73.1
2019-02-27T08:02:21.257Z,74.3
2019-02-27T08:15:13.892Z,75.2
2019-02-27T08:32:21.446Z,74.3
2019-02-27T08:45:20.875Z,72.9
2019-02-27T09:00:15.038Z,68.7
2019-02-27T09:15:03.534Z,65.2
2019-02-27T09:32:15.674Z,59.7
2019-02-27T09:45:04.795Z,58.5
2019-02-27T10:00:04.904Z,58.5
2019-02-27T10:15:05.457Z,56.6
2019-02-27T10:30:12.022Z,54.7
2019-02-27T10:47:17.200Z,55.5
2019-02-27T11:02:23.762Z,52.2
2019-02-27T11:17:21.469Z,48.6
2019-02-27T11:32:12.355Z,43.5
2019-02-27T11:45:03.482Z,41.1
2019-02-27T12:00:03.335Z,38.2
2019-02-27T12:15:03.526Z,37.4
2019-02-27T12:32:12.736Z,37.2
2019-02-27T12:47:13.860Z,36.7
2019-02-27T13:00:09.114Z,30
2019-02-27T13:15:07.682Z,32
2019-02-27T13:32:15.175Z,32.9
2019-02-27T13:47:16.275Z,39.6
2019-02-27T14:00:08.094Z,37.2
2019-02-27T14:30:08.761Z,38.3
2019-02-27T14:45:09.232Z,36
2019-02-27T15:02:23.003Z,35
2019-02-27T15:15:10.462Z,34.5
2019-02-27T15:30:13.927Z,32
2019-02-27T15:47:21.173Z,36.4
2019-02-27T16:02:20.227Z,37.4
2019-02-27T16:15:10.552Z,38.5
2019-02-27T16:32:20.438Z,48.8
2019-02-27T16:47:23.914Z,53.4
2019-02-27T17:15:03.602Z,54.4
2019-02-27T17:30:03.655Z,55.5
2019-02-27T17:45:03.788Z,57.8
2019-02-27T18:00:03.951Z,60.5
2019-02-27T18:15:04.474Z,60.5
2019-02-27T18:30:06.679Z,60.3
2019-02-27T18:45:04.784Z,60.3
2019-02-27T19:00:05.671Z,58.4
2019-02-27T19:15:12.222Z,57.1
2019-02-27T19:30:07.616Z,57.3
2019-02-27T19:45:08.622Z,59.9
2019-02-27T20:00:04.082Z,58
2019-02-27T20:15:11.826Z,57.3
2019-02-27T20:30:06.639Z,56.1
2019-02-27T20:45:09.755Z,58.7
2019-02-27T21:00:06.744Z,61.9
2019-02-27T21:15:06.740Z,59.5
2019-02-27T21:34:27.163Z,60.7
2019-02-27T21:45:06.835Z,61.3
2019-02-27T22:02:16.392Z,62.5
2019-02-27T22:15:06.900Z,63
2019-02-27T22:32:16.590Z,62.6
2019-02-27T22:45:06.967Z,62.5
2019-02-27T23:00:12.201Z,61.6
2019-02-27T23:15:07.041Z,62.4
2019-02-27T23:30:07.086Z,63.2
2019-02-27T23:45:11.237Z,63.9
